Time;durP1;ratioP1;P1;durP2;ratioP2;P2;SDS_P1;SDS_P2;PMS_P1;PMS_P2;Temp;Humidity;BMP_temperature;BMP_pressure;BME280_temperature;BME280_humidity;BME280_pressure;Samples;Min_cycle;Max_cycle;Signal;HPM_P1;HPM_P2
2022/10/09 00:00:18;;;;;;;1.77;1.63;;;;;;;;;;5029355;28;20219;-43
2022/10/09 00:02:45;;;;;;;2.27;2.07;;;;;;;;;;5030738;28;20201;-43
2022/10/09 00:05:12;;;;;;;5.30;2.57;;;;;;;;;;5021743;28;20202;-40
2022/10/09 00:07:39;;;;;;;3.33;1.90;;;;;;;;;;5029206;28;20267;-42
2022/10/09 00:10:08;;;;;;;2.40;1.97;;;;;;;;;;5023581;28;20220;-41
2022/10/09 00:12:35;;;;;;;3.10;1.93;;;;;;;;;;5033692;28;20254;-40
2022/10/09 00:20:07;;;;;;;1.60;1.50;;;;;;;;;;5046033;28;20227;-35
2022/10/09 00:22:35;;;;;;;2.33;1.80;;;;;;;;;;5031841;28;20198;-33
2022/10/09 00:25:02;;;;;;;4.30;1.90;;;;;;;;;;5043263;28;20206;-35
2022/10/09 00:27:30;;;;;;;1.63;1.53;;;;;;;;;;5037745;28;20270;-32
2022/10/09 00:29:57;;;;;;;2.97;1.87;;;;;;;;;;5032456;28;20226;-32
2022/10/09 00:32:25;;;;;;;2.60;1.80;;;;;;;;;;5034618;28;20230;-32
2022/10/09 00:34:52;;;;;;;2.17;1.93;;;;;;;;;;5040353;28;20237;-32
2022/10/09 00:37:19;;;;;;;3.30;1.90;;;;;;;;;;5032110;28;20201;-32
2022/10/09 00:39:46;;;;;;;3.33;1.80;;;;;;;;;;5028965;28;20230;-34
2022/10/09 00:42:13;;;;;;;2.30;1.80;;;;;;;;;;5030225;28;20212;-32
2022/10/09 00:44:50;;;;;;;1.93;1.50;;;;;;;;;;5046392;28;20190;-33
2022/10/09 00:47:19;;;;;;;3.90;2.10;;;;;;;;;;5044174;28;20206;-34
2022/10/09 00:49:47;;;;;;;3.43;2.13;;;;;;;;;;5042844;28;20218;-33
2022/10/09 00:52:14;;;;;;;5.53;2.10;;;;;;;;;;5044003;28;20221;-32
2022/10/09 00:54:43;;;;;;;2.13;1.97;;;;;;;;;;5052079;28;20209;-33
2022/10/09 00:57:10;;;;;;;3.63;1.87;;;;;;;;;;5042255;28;20209;-33
2022/10/09 00:59:38;;;;;;;3.23;1.93;;;;;;;;;;5034810;28;20227;-33
2022/10/09 01:02:07;;;;;;;2.80;2.03;;;;;;;;;;5040572;28;20962;-32
2022/10/09 01:04:35;;;;;;;2.47;1.80;;;;;;;;;;5031372;28;20202;-32
2022/10/09 01:07:11;;;;;;;4.13;1.80;;;;;;;;;;5034852;28;20261;-33
2022/10/09 01:09:40;;;;;;;6.07;2.00;;;;;;;;;;5053298;28;20224;-31
2022/10/09 01:12:11;;;;;;;1.93;1.83;;;;;;;;;;5045231;28;20199;-30
2022/10/09 01:14:40;;;;;;;2.57;2.20;;;;;;;;;;5049791;28;20206;-31
2022/10/09 01:17:12;;;;;;;4.30;2.03;;;;;;;;;;5045526;28;20202;-32
2022/10/09 01:19:50;;;;;;;4.10;2.17;;;;;;;;;;5047008;28;20225;-35
2022/10/09 01:22:26;;;;;;;2.37;2.00;;;;;;;;;;5035917;28;20191;-31
2022/10/09 01:24:55;;;;;;;2.47;2.23;;;;;;;;;;5035551;28;20201;-31
2022/10/09 01:27:25;;;;;;;2.53;2.00;;;;;;;;;;5040215;28;20614;-34
2022/10/09 01:29:54;;;;;;;2.93;2.40;;;;;;;;;;5038084;28;20225;-31
2022/10/09 01:32:23;;;;;;;4.67;2.40;;;;;;;;;;5039561;28;20229;-33
2022/10/09 01:34:51;;;;;;;2.23;2.07;;;;;;;;;;5046553;28;20207;-33
2022/10/09 01:37:19;;;;;;;3.87;2.27;;;;;;;;;;5041345;28;20201;-30
2022/10/09 01:39:47;;;;;;;4.67;2.30;;;;;;;;;;5034666;28;20310;-35
2022/10/09 01:42:14;;;;;;;6.43;2.50;;;;;;;;;;5037859;28;20290;-33
2022/10/09 01:44:43;;;;;;;5.73;2.27;;;;;;;;;;5035351;28;20205;-32
2022/10/09 01:47:13;;;;;;;4.00;2.37;;;;;;;;;;5051209;28;20206;-31
2022/10/09 01:49:42;;;;;;;2.47;2.10;;;;;;;;;;5050954;28;20232;-30
2022/10/09 01:52:15;;;;;;;2.03;1.93;;;;;;;;;;5051673;28;20211;-33
2022/10/09 01:54:48;;;;;;;3.87;2.10;;;;;;;;;;5034857;28;20201;-33
2022/10/09 01:57:18;;;;;;;2.20;2.00;;;;;;;;;;5039692;28;20267;-34
2022/10/09 01:59:52;;;;;;;2.80;2.20;;;;;;;;;;5052785;28;20388;-35
2022/10/09 02:02:20;;;;;;;2.90;1.80;;;;;;;;;;5037025;28;20230;-33
2022/10/09 02:04:48;;;;;;;2.70;2.10;;;;;;;;;;5050322;28;20235;-34
2022/10/09 02:07:15;;;;;;;2.83;2.40;;;;;;;;;;5034602;28;20202;-33
2022/10/09 02:09:43;;;;;;;2.17;1.97;;;;;;;;;;5032691;28;20230;-32
2022/10/09 02:12:11;;;;;;;2.97;1.90;;;;;;;;;;5045619;28;20199;-34
2022/10/09 02:14:39;;;;;;;2.00;1.80;;;;;;;;;;5044203;28;20209;-32
2022/10/09 02:17:10;;;;;;;3.37;2.23;;;;;;;;;;5035795;28;20201;-33
2022/10/09 02:19:40;;;;;;;3.27;2.10;;;;;;;;;;5051135;28;20241;-31
2022/10/09 02:22:11;;;;;;;2.23;2.00;;;;;;;;;;5049292;28;20218;-33
2022/10/09 02:24:39;;;;;;;2.73;2.53;;;;;;;;;;5035678;28;20206;-32
2022/10/09 02:27:06;;;;;;;2.60;2.33;;;;;;;;;;5047229;28;20216;-34
2022/10/09 02:29:33;;;;;;;2.30;1.80;;;;;;;;;;5046848;28;20289;-34
2022/10/09 02:32:01;;;;;;;2.43;2.20;;;;;;;;;;5052558;28;20210;-32
2022/10/09 02:34:29;;;;;;;2.00;1.90;;;;;;;;;;5041709;28;20217;-32
2022/10/09 02:36:57;;;;;;;2.53;2.03;;;;;;;;;;5044475;28;20210;-33
2022/10/09 02:39:24;;;;;;;3.80;2.30;;;;;;;;;;5034014;28;20214;-33
2022/10/09 02:41:51;;;;;;;2.50;2.10;;;;;;;;;;5038032;28;20278;-33
2022/10/09 02:44:18;;;;;;;2.50;2.30;;;;;;;;;;5044438;28;20200;-31
2022/10/09 02:46:45;;;;;;;2.77;2.30;;;;;;;;;;5034278;28;20229;-36
2022/10/09 02:49:12;;;;;;;2.57;1.90;;;;;;;;;;5045505;28;20293;-30
2022/10/09 02:51:41;;;;;;;3.83;1.77;;;;;;;;;;5041816;28;20198;-32
2022/10/09 02:54:09;;;;;;;2.30;1.90;;;;;;;;;;5053762;28;20226;-34
2022/10/09 02:56:36;;;;;;;2.90;2.20;;;;;;;;;;5048951;28;20214;-34
2022/10/09 02:59:04;;;;;;;3.63;2.17;;;;;;;;;;5031279;28;20207;-35
2022/10/09 03:01:31;;;;;;;2.17;1.97;;;;;;;;;;5030715;28;20222;-36
2022/10/09 03:03:58;;;;;;;2.90;2.17;;;;;;;;;;5033238;28;20203;-34
2022/10/09 03:06:26;;;;;;;2.70;1.80;;;;;;;;;;5036082;28;20286;-32
2022/10/09 03:08:55;;;;;;;1.73;1.63;;;;;;;;;;5030304;28;20293;-33
2022/10/09 03:11:23;;;;;;;2.00;1.73;;;;;;;;;;5030011;28;20229;-32
2022/10/09 03:13:50;;;;;;;4.13;1.97;;;;;;;;;;5041903;28;20226;-33
2022/10/09 03:16:18;;;;;;;1.90;1.80;;;;;;;;;;5036814;28;20202;-36
2022/10/09 03:18:46;;;;;;;2.03;1.80;;;;;;;;;;5036751;28;20297;-33
2022/10/09 03:21:14;;;;;;;2.33;2.10;;;;;;;;;;5049992;28;20232;-34
2022/10/09 03:23:42;;;;;;;4.10;2.33;;;;;;;;;;5050188;28;20194;-34
2022/10/09 03:26:11;;;;;;;1.90;1.80;;;;;;;;;;5040521;28;20205;-32
2022/10/09 03:28:39;;;;;;;3.90;1.73;;;;;;;;;;5038197;28;20202;-36
2022/10/09 03:31:07;;;;;;;3.37;1.80;;;;;;;;;;5030153;28;20246;-33
2022/10/09 03:33:34;;;;;;;1.70;1.60;;;;;;;;;;5028661;28;20222;-33
2022/10/09 03:36:02;;;;;;;2.30;1.67;;;;;;;;;;5037717;28;20237;-34
2022/10/09 03:38:29;;;;;;;1.70;1.60;;;;;;;;;;5044958;28;20198;-34
2022/10/09 03:40:58;;;;;;;3.10;1.83;;;;;;;;;;5049588;28;20221;-31
2022/10/09 03:43:27;;;;;;;1.73;1.60;;;;;;;;;;5034627;28;20203;-32
2022/10/09 03:45:55;;;;;;;3.37;2.10;;;;;;;;;;5032922;28;20202;-32
2022/10/09 03:48:22;;;;;;;2.77;1.70;;;;;;;;;;5033978;28;20206;-33
2022/10/09 03:50:49;;;;;;;3.37;1.80;;;;;;;;;;5037325;28;20226;-35
2022/10/09 03:53:17;;;;;;;3.03;1.90;;;;;;;;;;5043100;28;20218;-31
2022/10/09 03:55:44;;;;;;;2.70;1.53;;;;;;;;;;5045146;28;20198;-35
2022/10/09 03:58:11;;;;;;;2.97;1.80;;;;;;;;;;5035817;28;20209;-35
2022/10/09 04:00:40;;;;;;;3.80;2.13;;;;;;;;;;5045556;28;20228;-35
2022/10/09 04:03:07;;;;;;;2.33;1.60;;;;;;;;;;5040523;28;20217;-31
2022/10/09 04:05:34;;;;;;;1.60;1.50;;;;;;;;;;5037030;28;20566;-33
2022/10/09 04:08:01;;;;;;;1.70;1.60;;;;;;;;;;5048764;28;20202;-32
2022/10/09 04:10:28;;;;;;;2.37;1.53;;;;;;;;;;5038444;28;20318;-36
2022/10/09 04:12:56;;;;;;;1.90;1.80;;;;;;;;;;5044710;28;20231;-34
2022/10/09 04:15:23;;;;;;;3.03;2.40;;;;;;;;;;5043153;28;20221;-34
2022/10/09 04:17:51;;;;;;;1.93;1.80;;;;;;;;;;5042275;28;20202;-31
2022/10/09 04:20:19;;;;;;;3.07;1.80;;;;;;;;;;5034213;28;20304;-33
2022/10/09 04:22:46;;;;;;;3.37;1.80;;;;;;;;;;5032157;28;20202;-31
2022/10/09 04:25:13;;;;;;;4.57;1.90;;;;;;;;;;5029605;28;20293;-32
2022/10/09 04:27:40;;;;;;;3.77;1.97;;;;;;;;;;5028505;28;20209;-33
2022/10/09 04:30:09;;;;;;;1.60;1.50;;;;;;;;;;5039334;28;20234;-31
2022/10/09 04:32:36;;;;;;;2.40;1.67;;;;;;;;;;5041114;28;20232;-31
2022/10/09 04:35:05;;;;;;;1.80;1.70;;;;;;;;;;5035657;28;20237;-31
2022/10/09 04:37:33;;;;;;;2.07;1.73;;;;;;;;;;5044725;28;20202;-32
2022/10/09 04:40:00;;;;;;;5.23;1.70;;;;;;;;;;5052405;28;20228;-32
2022/10/09 04:42:27;;;;;;;1.80;1.70;;;;;;;;;;5044533;28;20203;-31
2022/10/09 04:44:55;;;;;;;2.10;1.60;;;;;;;;;;5049902;28;20201;-33
2022/10/09 04:47:22;;;;;;;1.93;1.50;;;;;;;;;;5039265;28;20205;-32
2022/10/09 04:49:49;;;;;;;1.83;1.73;;;;;;;;;;5040565;28;20229;-34
2022/10/09 04:52:17;;;;;;;3.93;2.13;;;;;;;;;;5033178;28;20290;-32
2022/10/09 04:54:44;;;;;;;3.30;1.80;;;;;;;;;;5033036;28;20230;-33
2022/10/09 04:57:11;;;;;;;1.90;1.60;;;;;;;;;;5033582;28;20201;-32
2022/10/09 04:59:38;;;;;;;1.43;1.40;;;;;;;;;;5040483;28;20226;-32
2022/10/09 05:02:06;;;;;;;2.83;1.80;;;;;;;;;;5047219;28;20206;-33
2022/10/09 05:04:33;;;;;;;2.27;1.60;;;;;;;;;;5032949;28;20209;-32
2022/10/09 05:07:00;;;;;;;4.07;1.47;;;;;;;;;;5042556;28;20202;-32
2022/10/09 05:09:28;;;;;;;2.27;1.80;;;;;;;;;;5052595;28;20206;-32
2022/10/09 05:11:56;;;;;;;1.80;1.50;;;;;;;;;;5039672;28;20210;-32
2022/10/09 05:14:23;;;;;;;1.77;1.40;;;;;;;;;;5049279;28;20222;-31
2022/10/09 05:16:51;;;;;;;1.70;1.50;;;;;;;;;;5048800;28;20205;-32
2022/10/09 05:19:19;;;;;;;3.00;1.70;;;;;;;;;;5040545;28;20297;-33
2022/10/09 05:21:46;;;;;;;1.87;1.77;;;;;;;;;;5043041;28;20209;-30
2022/10/09 05:24:13;;;;;;;2.53;2.03;;;;;;;;;;5032696;28;20206;-31
2022/10/09 05:26:42;;;;;;;2.00;1.80;;;;;;;;;;5034580;28;20206;-32
2022/10/09 05:29:09;;;;;;;2.20;2.00;;;;;;;;;;5039701;28;20206;-32
2022/10/09 05:31:36;;;;;;;2.00;1.50;;;;;;;;;;5036433;28;20226;-33
2022/10/09 05:34:04;;;;;;;3.97;2.60;;;;;;;;;;5031607;28;20230;-33
2022/10/09 05:36:31;;;;;;;3.00;2.80;;;;;;;;;;5038788;28;20500;-36
2022/10/09 05:38:59;;;;;;;2.97;2.77;;;;;;;;;;5051739;28;20198;-33
2022/10/09 05:41:28;;;;;;;2.90;2.40;;;;;;;;;;5048046;28;20250;-35
2022/10/09 05:44:00;;;;;;;2.60;2.20;;;;;;;;;;5042116;28;20194;-33
2022/10/09 05:46:28;;;;;;;1.83;1.73;;;;;;;;;;5044274;28;20201;-35
2022/10/09 05:48:56;;;;;;;2.20;2.10;;;;;;;;;;5037907;28;20293;-33
2022/10/09 05:51:24;;;;;;;2.53;2.33;;;;;;;;;;5046621;28;20225;-35
2022/10/09 05:53:52;;;;;;;4.33;3.93;;;;;;;;;;5052645;28;20248;-32
2022/10/09 05:56:20;;;;;;;3.53;2.97;;;;;;;;;;5044018;28;20238;-33
2022/10/09 05:58:50;;;;;;;3.60;3.30;;;;;;;;;;5050516;28;20205;-32
2022/10/09 06:01:19;;;;;;;3.13;2.63;;;;;;;;;;5034612;28;20222;-29
2022/10/09 06:03:49;;;;;;;4.53;2.53;;;;;;;;;;5042178;28;20198;-31
2022/10/09 06:06:16;;;;;;;2.67;2.47;;;;;;;;;;5040209;28;20195;-32
2022/10/09 06:08:43;;;;;;;3.87;2.17;;;;;;;;;;5051343;28;20206;-31
2022/10/09 06:11:11;;;;;;;2.27;2.07;;;;;;;;;;5053028;28;20227;-32
2022/10/09 06:13:38;;;;;;;2.00;1.80;;;;;;;;;;5041641;28;20221;-34
2022/10/09 06:18:37;;;;;;;2.00;1.90;;;;;;;;;;5045689;28;20296;-33
2022/10/09 06:21:04;;;;;;;3.27;2.40;;;;;;;;;;5053757;28;20225;-35
2022/10/09 06:23:31;;;;;;;2.20;2.00;;;;;;;;;;5054067;28;20193;-33
2022/10/09 06:28:28;;;;;;;2.90;2.20;;;;;;;;;;5035268;28;20233;-42
2022/10/09 06:31:00;;;;;;;1.80;1.70;;;;;;;;;;5049652;28;20308;-41
2022/10/09 06:33:29;;;;;;;1.83;1.60;;;;;;;;;;5043054;28;20293;-44
2022/10/09 06:36:00;;;;;;;2.63;1.80;;;;;;;;;;5051313;28;20226;-40
2022/10/09 06:38:28;;;;;;;3.23;2.00;;;;;;;;;;5051634;28;20210;-39
2022/10/09 06:40:56;;;;;;;1.60;1.50;;;;;;;;;;5047229;28;20245;-38
2022/10/09 06:43:23;;;;;;;1.80;1.50;;;;;;;;;;5043942;28;20213;-41
2022/10/09 06:45:50;;;;;;;2.03;1.70;;;;;;;;;;5051417;28;20202;-39
2022/10/09 06:48:17;;;;;;;1.73;1.63;;;;;;;;;;5047614;28;20285;-43
2022/10/09 06:50:45;;;;;;;2.27;1.87;;;;;;;;;;5050324;28;20228;-43
2022/10/09 06:53:13;;;;;;;2.53;1.80;;;;;;;;;;5051287;28;20206;-44
2022/10/09 06:55:40;;;;;;;2.87;1.97;;;;;;;;;;5049177;28;20309;-38
2022/10/09 06:58:08;;;;;;;2.30;2.07;;;;;;;;;;5045287;28;20209;-44
2022/10/09 07:00:35;;;;;;;2.90;2.00;;;;;;;;;;5046973;28;20271;-41
2022/10/09 07:03:02;;;;;;;2.60;2.30;;;;;;;;;;5048771;28;20213;-43
2022/10/09 07:05:29;;;;;;;2.47;2.27;;;;;;;;;;5042558;28;20198;-42
2022/10/09 07:07:57;;;;;;;2.30;2.10;;;;;;;;;;5050418;28;20279;-44
2022/10/09 07:10:25;;;;;;;2.30;2.10;;;;;;;;;;5035475;28;20225;-40
2022/10/09 07:12:53;;;;;;;2.13;1.80;;;;;;;;;;5037574;28;20215;-43
2022/10/09 07:15:20;;;;;;;3.47;1.93;;;;;;;;;;5044589;28;20289;-43
2022/10/09 07:17:47;;;;;;;2.93;1.90;;;;;;;;;;5045471;28;20205;-43
2022/10/09 07:20:15;;;;;;;2.30;2.10;;;;;;;;;;5048635;28;20309;-37
2022/10/09 07:22:42;;;;;;;4.13;2.30;;;;;;;;;;5050770;28;20285;-42
2022/10/09 07:25:11;;;;;;;3.80;2.20;;;;;;;;;;5049740;28;20194;-39
2022/10/09 07:27:40;;;;;;;3.30;2.53;;;;;;;;;;5050485;28;20206;-41
2022/10/09 07:30:09;;;;;;;4.60;2.53;;;;;;;;;;5045465;28;20220;-42
2022/10/09 07:32:36;;;;;;;2.37;2.13;;;;;;;;;;5047893;28;20195;-40
2022/10/09 07:35:03;;;;;;;2.60;2.40;;;;;;;;;;5044570;28;20257;-44
2022/10/09 07:37:30;;;;;;;2.90;2.47;;;;;;;;;;5053278;28;20202;-44
2022/10/09 07:40:00;;;;;;;4.63;2.87;;;;;;;;;;5052123;28;20320;-40
2022/10/09 07:42:30;;;;;;;2.90;2.50;;;;;;;;;;5042444;28;20198;-43
2022/10/09 07:44:58;;;;;;;4.63;2.47;;;;;;;;;;5050671;28;20190;-41
2022/10/09 07:47:27;;;;;;;7.13;2.40;;;;;;;;;;5044063;28;20210;-37
2022/10/09 07:49:55;;;;;;;6.10;2.80;;;;;;;;;;5051343;28;20218;-44
2022/10/09 07:52:22;;;;;;;4.53;3.40;;;;;;;;;;5050137;28;20204;-39
2022/10/09 07:54:49;;;;;;;2.67;2.40;;;;;;;;;;5050057;28;20257;-40
2022/10/09 07:57:16;;;;;;;2.43;2.17;;;;;;;;;;5044526;28;20194;-39
2022/10/09 07:59:44;;;;;;;4.63;3.10;;;;;;;;;;5049253;28;20304;-41
2022/10/09 08:02:12;;;;;;;5.10;2.83;;;;;;;;;;5043999;28;20206;-41
2022/10/09 08:04:43;;;;;;;3.40;2.70;;;;;;;;;;5042918;28;20220;-41
2022/10/09 08:07:13;;;;;;;3.77;2.53;;;;;;;;;;5047772;28;20281;-40
2022/10/09 08:09:40;;;;;;;5.33;2.70;;;;;;;;;;5050507;28;20234;-39
2022/10/09 08:12:07;;;;;;;3.30;2.90;;;;;;;;;;5036558;28;20209;-41
2022/10/09 08:14:35;;;;;;;3.97;2.80;;;;;;;;;;5043087;28;20230;-40
2022/10/09 08:17:02;;;;;;;3.80;2.80;;;;;;;;;;5030893;28;20207;-39
2022/10/09 08:19:31;;;;;;;3.73;2.93;;;;;;;;;;5035852;28;20194;-43
2022/10/09 08:22:00;;;;;;;5.97;2.77;;;;;;;;;;5042665;28;20206;-41
2022/10/09 08:24:28;;;;;;;5.87;4.40;;;;;;;;;;5045678;28;20214;-43
2022/10/09 08:26:55;;;;;;;4.53;2.60;;;;;;;;;;5035724;28;20272;-38
2022/10/09 08:29:23;;;;;;;5.83;4.00;;;;;;;;;;5044137;28;20198;-41
2022/10/09 08:31:50;;;;;;;4.07;2.37;;;;;;;;;;5041660;28;20238;-42
2022/10/09 08:34:18;;;;;;;4.27;3.23;;;;;;;;;;5039822;28;20204;-42
2022/10/09 08:36:46;;;;;;;4.30;2.93;;;;;;;;;;5048700;28;20212;-40
2022/10/09 08:39:14;;;;;;;4.70;2.97;;;;;;;;;;5049283;28;20242;-40
2022/10/09 08:41:44;;;;;;;2.80;2.30;;;;;;;;;;5035218;28;20211;-43
2022/10/09 08:44:13;;;;;;;4.67;2.60;;;;;;;;;;5050454;28;20208;-42
2022/10/09 08:46:47;;;;;;;4.03;2.07;;;;;;;;;;5050311;28;20206;-42
2022/10/09 08:49:20;;;;;;;4.70;2.37;;;;;;;;;;5042984;28;20391;-42
2022/10/09 08:51:49;;;;;;;3.57;2.03;;;;;;;;;;5049752;28;20277;-41
2022/10/09 08:54:22;;;;;;;3.63;2.10;;;;;;;;;;5049638;28;20209;-40
2022/10/09 08:56:50;;;;;;;2.40;2.00;;;;;;;;;;5039445;28;20213;-42
2022/10/09 08:59:17;;;;;;;4.63;2.23;;;;;;;;;;5048759;28;20206;-42
2022/10/09 09:01:48;;;;;;;2.77;2.23;;;;;;;;;;5035622;28;20209;-42
2022/10/09 09:04:32;;;;;;;3.17;1.23;;;;;;;;;;5038128;28;20246;-41
2022/10/09 09:07:05;;;;;;;6.83;2.23;;;;;;;;;;5047768;28;20190;-39
2022/10/09 09:09:38;;;;;;;3.73;1.83;;;;;;;;;;5049810;28;20293;-41
2022/10/09 09:12:08;;;;;;;3.57;1.90;;;;;;;;;;5044590;28;20207;-43
2022/10/09 09:14:41;;;;;;;6.00;2.10;;;;;;;;;;5044127;28;20202;-42
2022/10/09 09:17:13;;;;;;;2.37;2.00;;;;;;;;;;5042475;28;20283;-41
2022/10/09 09:19:55;;;;;;;2.53;2.00;;;;;;;;;;5037105;28;20245;-40
2022/10/09 09:22:25;;;;;;;2.47;1.53;;;;;;;;;;5040766;28;20205;-44
2022/10/09 09:24:53;;;;;;;3.47;1.53;;;;;;;;;;5045838;28;20215;-40
2022/10/09 09:27:21;;;;;;;1.97;1.50;;;;;;;;;;5041769;28;20222;-42
2022/10/09 09:29:51;;;;;;;4.03;1.90;;;;;;;;;;5048300;28;20218;-41
2022/10/09 09:32:19;;;;;;;3.63;1.40;;;;;;;;;;5048870;28;20205;-40
2022/10/09 09:34:47;;;;;;;2.03;1.50;;;;;;;;;;5041198;28;20265;-41
2022/10/09 09:37:15;;;;;;;3.30;1.90;;;;;;;;;;5051463;28;20202;-44
2022/10/09 09:39:44;;;;;;;4.83;1.97;;;;;;;;;;5052923;28;20225;-44
2022/10/09 09:42:16;;;;;;;1.30;1.20;;;;;;;;;;5049887;28;20198;-43
2022/10/09 09:44:46;;;;;;;1.50;1.40;;;;;;;;;;5046872;28;20204;-42
2022/10/09 09:47:16;;;;;;;2.90;1.50;;;;;;;;;;5048787;28;20300;-44
2022/10/09 09:49:53;;;;;;;2.67;1.30;;;;;;;;;;5051778;28;20235;-41
2022/10/09 09:52:21;;;;;;;4.93;1.60;;;;;;;;;;5053085;28;20194;-43
2022/10/09 09:54:50;;;;;;;2.23;1.37;;;;;;;;;;5054205;28;20259;-43
2022/10/09 09:57:24;;;;;;;1.90;1.60;;;;;;;;;;5037120;28;20203;-41
2022/10/09 09:59:52;;;;;;;5.47;1.60;;;;;;;;;;5052724;28;20281;-41
2022/10/09 10:02:20;;;;;;;2.83;1.40;;;;;;;;;;5046308;28;20252;-42
2022/10/09 10:04:49;;;;;;;4.93;1.40;;;;;;;;;;5044010;28;20207;-43
2022/10/09 10:07:27;;;;;;;3.30;1.63;;;;;;;;;;5054581;28;20255;-43
2022/10/09 10:10:03;;;;;;;3.87;1.60;;;;;;;;;;5049655;28;20233;-41
2022/10/09 10:12:30;;;;;;;1.63;1.50;;;;;;;;;;5049968;28;20194;-44
2022/10/09 10:14:58;;;;;;;5.93;1.20;;;;;;;;;;5052222;28;20215;-40
2022/10/09 10:17:27;;;;;;;3.63;1.37;;;;;;;;;;5050577;28;20248;-40
2022/10/09 10:19:54;;;;;;;1.73;1.13;;;;;;;;;;5044863;28;20310;-41
2022/10/09 10:22:23;;;;;;;1.00;1.00;;;;;;;;;;5053526;28;20230;-41
2022/10/09 10:24:52;;;;;;;3.73;1.50;;;;;;;;;;5054176;28;20665;-41
2022/10/09 10:27:25;;;;;;;3.27;1.90;;;;;;;;;;5045813;28;20467;-44
2022/10/09 10:29:53;;;;;;;1.83;1.30;;;;;;;;;;5052299;28;20241;-42
2022/10/09 10:32:23;;;;;;;3.13;1.13;;;;;;;;;;5049685;28;20203;-42
2022/10/09 10:34:52;;;;;;;3.07;1.40;;;;;;;;;;5049774;28;20205;-40
2022/10/09 10:37:25;;;;;;;4.10;1.40;;;;;;;;;;5051381;28;20200;-44
2022/10/09 10:39:54;;;;;;;1.87;1.17;;;;;;;;;;5051612;28;20245;-38
2022/10/09 10:42:25;;;;;;;1.57;1.30;;;;;;;;;;5042151;28;20210;-41
2022/10/09 10:45:00;;;;;;;1.73;1.10;;;;;;;;;;5050060;28;20202;-42
2022/10/09 10:47:28;;;;;;;1.77;1.30;;;;;;;;;;5044613;28;20207;-45
2022/10/09 10:49:56;;;;;;;2.30;1.40;;;;;;;;;;5040855;28;20311;-41
2022/10/09 10:52:31;;;;;;;1.57;1.20;;;;;;;;;;5050584;28;20286;-42
2022/10/09 10:55:01;;;;;;;2.10;1.13;;;;;;;;;;5046094;28;20215;-40
2022/10/09 10:57:32;;;;;;;4.30;1.30;;;;;;;;;;5043789;28;20217;-41
2022/10/09 11:00:04;;;;;;;5.43;1.20;;;;;;;;;;5049926;28;20223;-43
2022/10/09 11:02:46;;;;;;;2.53;1.20;;;;;;;;;;5045587;28;20212;-41
2022/10/09 11:05:21;;;;;;;1.03;1.03;;;;;;;;;;5035268;28;20202;-41
2022/10/09 11:07:52;;;;;;;2.80;1.47;;;;;;;;;;5050284;28;20194;-43
2022/10/09 11:10:24;;;;;;;1.60;1.00;;;;;;;;;;5050068;28;20231;-44
2022/10/09 11:12:55;;;;;;;1.50;1.30;;;;;;;;;;5047397;28;20200;-42
2022/10/09 11:15:26;;;;;;;1.57;1.20;;;;;;;;;;5046628;28;20205;-41
2022/10/09 11:17:56;;;;;;;1.93;1.10;;;;;;;;;;5046225;28;20200;-41
2022/10/09 11:20:35;;;;;;;1.20;0.80;;;;;;;;;;5049671;28;20248;-43
2022/10/09 11:23:07;;;;;;;1.20;1.10;;;;;;;;;;5050048;28;20229;-41
2022/10/09 11:25:38;;;;;;;0.87;0.87;;;;;;;;;;5049371;28;20238;-41
2022/10/09 11:28:10;;;;;;;2.13;1.10;;;;;;;;;;5048866;28;20217;-39
2022/10/09 11:30:39;;;;;;;4.03;1.30;;;;;;;;;;5047156;28;20218;-43
2022/10/09 11:33:12;;;;;;;1.30;1.20;;;;;;;;;;5039014;28;20207;-44
2022/10/09 11:35:43;;;;;;;2.73;1.10;;;;;;;;;;5041766;28;20223;-40
2022/10/09 11:38:21;;;;;;;2.50;1.20;;;;;;;;;;5042569;28;20205;-44
2022/10/09 11:40:48;;;;;;;3.67;1.17;;;;;;;;;;5044773;28;20225;-44
2022/10/09 11:43:24;;;;;;;1.97;0.83;;;;;;;;;;5043755;28;20291;-40
2022/10/09 11:45:53;;;;;;;2.07;1.20;;;;;;;;;;5049893;28;20242;-44
2022/10/09 11:48:23;;;;;;;2.70;1.10;;;;;;;;;;5045239;28;20206;-44
2022/10/09 11:50:59;;;;;;;2.00;1.00;;;;;;;;;;5048092;28;20229;-42
2022/10/09 11:53:26;;;;;;;0.93;0.93;;;;;;;;;;5049522;28;20198;-38
2022/10/09 11:56:02;;;;;;;1.30;1.20;;;;;;;;;;5042686;28;20230;-43
2022/10/09 11:58:33;;;;;;;1.70;1.30;;;;;;;;;;5042213;28;20232;-43
2022/10/09 12:01:11;;;;;;;4.00;1.23;;;;;;;;;;5045912;28;20230;-39
2022/10/09 12:03:38;;;;;;;2.23;1.10;;;;;;;;;;5044645;28;20229;-44
2022/10/09 12:06:08;;;;;;;2.00;1.10;;;;;;;;;;5048730;28;20277;-40
2022/10/09 12:08:35;;;;;;;2.37;1.20;;;;;;;;;;5049268;28;20209;-41
2022/10/09 12:11:09;;;;;;;3.97;1.00;;;;;;;;;;5049764;28;20229;-44
2022/10/09 12:13:46;;;;;;;2.13;1.00;;;;;;;;;;5042507;28;20203;-45
2022/10/09 12:16:28;;;;;;;2.77;1.43;;;;;;;;;;5041210;28;20234;-42
2022/10/09 12:18:56;;;;;;;1.93;1.10;;;;;;;;;;5040981;28;20205;-42
2022/10/09 12:21:25;;;;;;;2.40;1.10;;;;;;;;;;5049211;28;20225;-42
2022/10/09 12:31:41;;;;;;;1.33;1.00;;;;;;;;;;5060392;28;20217;-32
2022/10/09 12:34:19;;;;;;;2.33;1.40;;;;;;;;;;5068109;28;20213;-31
2022/10/09 12:36:46;;;;;;;2.43;1.13;;;;;;;;;;5069217;28;20212;-33
2022/10/09 12:39:14;;;;;;;1.13;1.03;;;;;;;;;;5072530;28;20211;-34
2022/10/09 12:41:43;;;;;;;1.57;1.00;;;;;;;;;;5065773;28;20202;-36
2022/10/09 12:44:17;;;;;;;2.30;1.20;;;;;;;;;;5072402;28;20200;-35
2022/10/09 12:46:46;;;;;;;1.53;1.03;;;;;;;;;;5070399;28;20229;-32
2022/10/09 12:49:19;;;;;;;1.17;1.03;;;;;;;;;;5064793;28;20201;-37
2022/10/09 12:51:50;;;;;;;1.17;1.10;;;;;;;;;;5072040;28;20193;-33
2022/10/09 12:54:18;;;;;;;2.57;1.20;;;;;;;;;;5072257;28;20289;-33
2022/10/09 12:56:45;;;;;;;6.37;1.50;;;;;;;;;;5067249;28;20223;-36
2022/10/09 12:59:13;;;;;;;1.43;0.97;;;;;;;;;;5071861;28;20211;-36
2022/10/09 13:01:41;;;;;;;1.43;1.13;;;;;;;;;;5071088;28;20222;-33
2022/10/09 13:04:24;;;;;;;3.00;1.67;;;;;;;;;;5062331;28;20198;-34
2022/10/09 13:06:52;;;;;;;1.50;1.00;;;;;;;;;;5072763;28;20190;-32
2022/10/09 13:09:21;;;;;;;2.90;1.00;;;;;;;;;;5075930;28;20201;-32
2022/10/09 13:11:52;;;;;;;3.63;1.40;;;;;;;;;;5073815;28;20202;-34
2022/10/09 13:14:27;;;;;;;1.47;1.20;;;;;;;;;;5064736;28;20197;-31
2022/10/09 13:16:54;;;;;;;3.07;1.30;;;;;;;;;;5070733;28;20225;-32
2022/10/09 13:19:24;;;;;;;2.50;1.30;;;;;;;;;;5068517;28;20197;-32
2022/10/09 13:22:02;;;;;;;2.10;1.30;;;;;;;;;;5075809;28;20239;-32
2022/10/09 13:24:32;;;;;;;2.43;1.20;;;;;;;;;;5075881;28;20244;-34
2022/10/09 13:26:59;;;;;;;3.03;1.40;;;;;;;;;;5068717;28;20197;-31
2022/10/09 13:29:27;;;;;;;3.40;1.53;;;;;;;;;;5075000;28;20284;-35
2022/10/09 13:31:54;;;;;;;1.97;1.40;;;;;;;;;;5073837;28;20197;-35
2022/10/09 13:34:22;;;;;;;2.20;1.40;;;;;;;;;;5070717;28;20220;-32
2022/10/09 13:36:51;;;;;;;1.57;1.33;;;;;;;;;;5075222;28;20224;-34
2022/10/09 13:39:21;;;;;;;1.50;1.10;;;;;;;;;;5049444;28;20296;-35
2022/10/09 13:41:51;;;;;;;1.00;1.00;;;;;;;;;;5066850;28;20190;-34
2022/10/09 13:44:18;;;;;;;1.73;1.20;;;;;;;;;;5072523;28;20207;-31
2022/10/09 13:46:45;;;;;;;3.57;1.50;;;;;;;;;;5070246;28;20305;-35
2022/10/09 13:49:12;;;;;;;1.40;1.30;;;;;;;;;;5067458;28;20213;-32
2022/10/09 13:51:48;;;;;;;1.93;1.60;;;;;;;;;;5070042;28;20315;-35
2022/10/09 13:54:16;;;;;;;2.63;1.30;;;;;;;;;;5060192;28;20205;-32
2022/10/09 13:56:43;;;;;;;2.50;1.50;;;;;;;;;;5062356;28;20235;-35
2022/10/09 13:59:10;;;;;;;3.97;1.60;;;;;;;;;;5064171;28;20211;-34
2022/10/09 14:01:38;;;;;;;2.70;1.40;;;;;;;;;;5064081;28;20290;-35
2022/10/09 14:04:06;;;;;;;3.00;1.23;;;;;;;;;;5061020;28;20211;-37
2022/10/09 14:06:36;;;;;;;1.90;1.33;;;;;;;;;;5070069;28;20209;-34
2022/10/09 14:09:04;;;;;;;1.70;1.33;;;;;;;;;;5067165;28;20203;-34
2022/10/09 14:11:33;;;;;;;4.70;1.40;;;;;;;;;;5069542;28;20224;-35
2022/10/09 14:14:00;;;;;;;1.40;1.30;;;;;;;;;;5068058;28;20201;-34
2022/10/09 14:16:27;;;;;;;2.13;1.40;;;;;;;;;;5065142;28;20324;-33
2022/10/09 14:18:56;;;;;;;1.60;1.20;;;;;;;;;;5065629;28;20259;-33
2022/10/09 14:21:23;;;;;;;1.80;1.50;;;;;;;;;;5067773;28;20314;-34
2022/10/09 14:23:52;;;;;;;2.10;1.00;;;;;;;;;;5062910;28;20209;-35
2022/10/09 14:26:19;;;;;;;2.77;1.33;;;;;;;;;;5062047;28;20301;-36
2022/10/09 14:28:48;;;;;;;2.60;1.43;;;;;;;;;;5070497;28;20198;-34
2022/10/09 14:31:16;;;;;;;5.10;1.80;;;;;;;;;;5064922;28;20506;-34
2022/10/09 14:33:44;;;;;;;1.43;1.33;;;;;;;;;;5060657;28;20201;-34
2022/10/09 14:36:12;;;;;;;2.03;1.50;;;;;;;;;;5070382;28;20829;-33
2022/10/09 14:38:49;;;;;;;2.20;1.50;;;;;;;;;;5067233;28;20202;-31
2022/10/09 14:41:17;;;;;;;1.50;1.30;;;;;;;;;;5066478;28;20227;-35
2022/10/09 14:43:45;;;;;;;2.90;1.70;;;;;;;;;;5061738;28;20229;-30
2022/10/09 14:46:15;;;;;;;2.90;1.80;;;;;;;;;;5074652;28;20197;-35
2022/10/09 14:48:43;;;;;;;3.13;2.03;;;;;;;;;;5069955;28;20209;-35
2022/10/09 14:51:12;;;;;;;3.37;1.63;;;;;;;;;;5064686;28;20228;-34
2022/10/09 14:53:39;;;;;;;2.10;1.40;;;;;;;;;;5066999;28;20201;-34
2022/10/09 14:56:07;;;;;;;2.83;1.63;;;;;;;;;;5070811;28;20201;-34
2022/10/09 14:58:36;;;;;;;2.80;1.90;;;;;;;;;;5071510;28;20235;-35
2022/10/09 15:01:17;;;;;;;4.10;2.00;;;;;;;;;;5062277;28;20280;-33
2022/10/09 15:03:46;;;;;;;3.67;2.00;;;;;;;;;;5067018;28;20203;-34
2022/10/09 15:06:16;;;;;;;3.50;1.87;;;;;;;;;;5067265;28;20201;-33
2022/10/09 15:08:43;;;;;;;2.67;1.80;;;;;;;;;;5074241;28;20207;-33
2022/10/09 15:11:11;;;;;;;2.43;1.80;;;;;;;;;;5072624;28;20320;-34